Time;durP1;ratioP1;P1;durP2;ratioP2;P2;SDS_P1;SDS_P2;PMS_P1;PMS_P2;Temp;Humidity;BMP_temperature;BMP_pressure;BME280_temperature;BME280_humidity;BME280_pressure;Samples;Min_cycle;Max_cycle;Signal;HPM_P1;HPM_P2
2021/08/21 00:02:21;;;;;;;9.43;8.73;;;18.20;99.90;;;;;;5054121;28;20280;-68
2021/08/21 00:04:49;;;;;;;8.77;8.17;;;18.20;99.90;;;;;;5054807;28;20209;-68
2021/08/21 00:07:15;;;;;;;8.33;7.83;;;18.20;99.90;;;;;;5034607;28;20789;-68
2021/08/21 00:09:41;;;;;;;8.73;8.13;;;18.20;99.90;;;;;;5054763;28;20415;-68
2021/08/21 00:12:07;;;;;;;7.50;7.00;;;18.20;99.90;;;;;;5034541;28;20695;-69
2021/08/21 00:14:33;;;;;;;8.57;7.97;;;18.20;99.90;;;;;;5054425;28;20650;-68
2021/08/21 00:17:00;;;;;;;8.20;7.70;;;18.10;99.90;;;;;;5054355;28;20412;-68
2021/08/21 00:19:26;;;;;;;8.20;7.60;;;18.10;99.90;;;;;;5053267;28;20408;-68
2021/08/21 00:21:52;;;;;;;7.93;7.30;;;18.10;99.90;;;;;;5054572;28;20421;-68
2021/08/21 00:24:18;;;;;;;8.13;7.47;;;18.10;99.90;;;;;;5053373;28;20412;-68
2021/08/21 00:26:43;;;;;;;8.73;8.13;;;18.10;99.90;;;;;;5036114;28;20181;-68
2021/08/21 00:29:09;;;;;;;8.47;7.87;;;18.10;99.90;;;;;;5053644;28;20173;-68
2021/08/21 00:31:35;;;;;;;8.40;7.70;;;18.10;99.90;;;;;;5053832;28;20260;-68
2021/08/21 00:34:02;;;;;;;12.13;8.47;;;18.10;99.90;;;;;;5052967;28;20185;-68
2021/08/21 00:36:28;;;;;;;9.27;8.40;;;18.10;99.90;;;;;;5033599;28;20539;-68
2021/08/21 00:38:53;;;;;;;8.80;8.20;;;18.00;99.90;;;;;;5044203;28;20428;-68
2021/08/21 00:41:19;;;;;;;8.63;8.00;;;18.00;99.90;;;;;;5051689;28;20178;-68
2021/08/21 00:43:45;;;;;;;9.33;8.60;;;18.00;99.90;;;;;;5053519;28;20181;-68
2021/08/21 00:46:10;;;;;;;10.07;9.27;;;18.00;99.90;;;;;;5053364;28;20293;-69
2021/08/21 00:48:36;;;;;;;9.37;8.67;;;18.00;99.90;;;;;;5054073;28;20185;-68
2021/08/21 00:51:02;;;;;;;9.03;8.23;;;18.00;99.90;;;;;;5054131;28;20185;-68
2021/08/21 00:53:32;;;;;;;8.60;8.10;;;17.90;99.90;;;;;;5035139;28;20182;-68
2021/08/21 00:55:59;;;;;;;10.00;9.30;;;18.00;99.90;;;;;;5053789;28;20673;-68
2021/08/21 00:58:26;;;;;;;9.10;8.40;;;17.90;99.90;;;;;;5053086;28;20943;-68
2021/08/21 01:00:53;;;;;;;8.90;8.30;;;17.90;99.90;;;;;;5053855;28;20412;-68
2021/08/21 01:03:19;;;;;;;8.30;7.70;;;17.90;99.90;;;;;;5052990;28;20428;-68
2021/08/21 01:05:45;;;;;;;9.43;8.63;;;17.90;99.90;;;;;;5053748;28;20510;-68
2021/08/21 01:08:11;;;;;;;9.00;8.40;;;17.90;99.90;;;;;;5034998;28;20511;-68
2021/08/21 01:10:37;;;;;;;9.27;8.57;;;17.90;99.90;;;;;;5044888;28;20507;-68
2021/08/21 01:13:03;;;;;;;8.83;8.23;;;17.90;99.90;;;;;;5052967;28;20174;-68
2021/08/21 01:15:29;;;;;;;9.70;8.90;;;17.90;99.90;;;;;;5033015;28;20182;-68
2021/08/21 01:17:56;;;;;;;9.43;8.83;;;17.90;99.90;;;;;;5033504;28;20410;-68
2021/08/21 01:20:24;;;;;;;8.23;7.73;;;17.80;99.90;;;;;;5032733;28;20496;-68
2021/08/21 01:22:49;;;;;;;8.50;7.90;;;17.80;99.90;;;;;;5033630;28;20823;-68
2021/08/21 01:25:23;;;;;;;8.50;7.87;;;17.80;99.90;;;;;;5032084;28;20463;-68
2021/08/21 01:27:49;;;;;;;8.47;7.90;;;17.80;99.90;;;;;;5033548;28;20440;-70
2021/08/21 01:30:15;;;;;;;8.20;7.60;;;17.80;99.90;;;;;;5032483;28;20413;-68
2021/08/21 01:32:40;;;;;;;8.43;7.83;;;17.80;99.90;;;;;;5033367;28;20178;-68
2021/08/21 01:35:07;;;;;;;8.20;7.67;;;17.70;99.90;;;;;;5033081;28;20401;-68
2021/08/21 01:37:32;;;;;;;8.40;7.70;;;17.70;99.90;;;;;;5042064;28;20170;-68
2021/08/21 01:39:58;;;;;;;8.03;7.30;;;17.70;99.90;;;;;;5052811;28;20930;-68
2021/08/21 01:42:25;;;;;;;18.47;9.00;;;17.70;99.90;;;;;;5033203;28;20182;-68
2021/08/21 01:44:52;;;;;;;8.10;7.33;;;17.70;99.90;;;;;;5048751;28;20473;-68
2021/08/21 01:47:18;;;;;;;8.90;7.93;;;17.60;99.90;;;;;;5032247;28;20409;-68
2021/08/21 01:49:52;;;;;;;9.23;8.47;;;17.60;99.90;;;;;;5032310;28;20409;-68
2021/08/21 01:52:17;;;;;;;8.80;8.13;;;17.60;99.90;;;;;;5032178;28;20394;-68
2021/08/21 01:54:43;;;;;;;8.03;7.53;;;17.60;99.90;;;;;;5033089;28;20420;-68
2021/08/21 01:57:09;;;;;;;8.93;8.37;;;17.60;99.90;;;;;;5015118;28;20200;-75
2021/08/21 01:59:39;;;;;;;9.00;8.40;;;17.60;99.90;;;;;;5032330;28;20187;-68
2021/08/21 02:02:07;;;;;;;8.90;8.20;;;17.60;99.90;;;;;;5032653;28;20572;-68
2021/08/21 02:04:33;;;;;;;8.40;7.90;;;17.60;99.90;;;;;;5031513;28;20453;-68
2021/08/21 02:06:59;;;;;;;8.17;7.57;;;17.60;99.90;;;;;;5040899;28;20511;-67
2021/08/21 02:09:27;;;;;;;8.30;7.60;;;17.60;99.90;;;;;;5051388;28;20408;-70
2021/08/21 02:11:54;;;;;;;9.70;8.83;;;17.50;99.90;;;;;;5032803;28;20409;-68
2021/08/21 02:14:21;;;;;;;8.60;8.03;;;17.60;99.90;;;;;;5032631;28;20437;-68
2021/08/21 02:16:50;;;;;;;9.10;8.40;;;17.60;99.90;;;;;;5032501;28;20429;-68
2021/08/21 02:19:16;;;;;;;8.47;7.80;;;17.50;99.90;;;;;;5014048;28;20763;-68
2021/08/21 02:21:42;;;;;;;8.73;8.13;;;17.50;99.90;;;;;;5032524;28;20907;-67
2021/08/21 02:24:09;;;;;;;8.43;7.83;;;17.50;99.90;;;;;;5032207;28;20448;-67
2021/08/21 02:26:40;;;;;;;8.37;7.83;;;17.50;99.90;;;;;;5031860;28;20401;-68
2021/08/21 02:29:09;;;;;;;8.80;8.20;;;17.50;99.90;;;;;;5014860;28;20397;-68
2021/08/21 02:31:35;;;;;;;8.30;7.70;;;17.50;99.90;;;;;;5031558;28;20500;-68
2021/08/21 02:34:02;;;;;;;8.10;7.50;;;17.50;99.90;;;;;;5032135;28;20978;-68
2021/08/21 02:36:28;;;;;;;8.53;7.83;;;17.50;99.90;;;;;;5027032;28;20420;-68
2021/08/21 02:38:54;;;;;;;9.17;7.50;;;17.50;99.90;;;;;;5046648;28;20456;-68
2021/08/21 02:41:19;;;;;;;8.47;7.77;;;17.50;99.90;;;;;;5031454;28;20409;-68
2021/08/21 02:43:45;;;;;;;9.47;8.87;;;17.50;99.90;;;;;;5033100;28;20782;-68
2021/08/21 02:46:11;;;;;;;8.67;7.97;;;17.50;99.90;;;;;;5032090;28;20336;-74
2021/08/21 02:48:37;;;;;;;8.47;7.77;;;17.40;99.90;;;;;;5031838;28;20610;-68
2021/08/21 02:51:02;;;;;;;8.57;7.97;;;17.40;99.90;;;;;;5032121;28;20178;-68
2021/08/21 02:53:28;;;;;;;8.50;8.00;;;17.40;99.90;;;;;;5031296;28;20174;-68
2021/08/21 02:55:54;;;;;;;8.50;7.90;;;17.40;99.90;;;;;;5014403;28;20543;-68
2021/08/21 02:58:20;;;;;;;9.13;8.63;;;17.40;99.90;;;;;;5030484;28;20432;-68
2021/08/21 03:00:46;;;;;;;9.37;8.77;;;17.30;99.90;;;;;;5032788;28;20488;-68
2021/08/21 03:03:12;;;;;;;8.80;8.20;;;17.30;99.90;;;;;;5037335;28;20170;-67
2021/08/21 03:05:39;;;;;;;9.00;8.40;;;17.30;99.90;;;;;;5055514;28;20254;-68
2021/08/21 03:08:05;;;;;;;8.97;8.43;;;17.30;99.90;;;;;;5038048;28;20417;-68
2021/08/21 03:10:31;;;;;;;10.00;9.20;;;17.30;99.90;;;;;;5036302;28;20416;-68
2021/08/21 03:12:57;;;;;;;9.87;9.10;;;17.30;99.90;;;;;;5018438;28;20420;-68
2021/08/21 03:15:27;;;;;;;9.30;8.60;;;17.30;99.90;;;;;;5035367;28;20425;-68
2021/08/21 03:17:53;;;;;;;10.03;9.13;;;17.20;99.90;;;;;;5035924;28;20217;-68
2021/08/21 03:20:19;;;;;;;9.20;8.50;;;17.20;99.90;;;;;;5034995;28;20405;-68
2021/08/21 03:22:45;;;;;;;8.83;8.23;;;17.20;99.90;;;;;;5035783;28;20500;-68
2021/08/21 03:25:12;;;;;;;8.80;8.20;;;17.20;99.90;;;;;;5035699;28;20464;-68
2021/08/21 03:27:37;;;;;;;7.43;7.00;;;17.20;99.90;;;;;;5034959;28;20459;-68
2021/08/21 03:30:05;;;;;;;8.77;8.07;;;17.20;99.90;;;;;;5035140;28;20429;-68
2021/08/21 03:32:31;;;;;;;9.97;8.80;;;17.10;99.90;;;;;;5025134;28;20222;-68
2021/08/21 03:34:57;;;;;;;8.60;8.00;;;17.10;99.90;;;;;;5055522;28;20937;-68
2021/08/21 03:37:23;;;;;;;8.70;8.00;;;17.10;99.90;;;;;;5036615;28;20935;-68
2021/08/21 03:39:48;;;;;;;9.27;8.63;;;17.10;99.90;;;;;;5046247;28;20415;-67
2021/08/21 03:42:15;;;;;;;9.30;8.53;;;17.10;99.90;;;;;;5054962;28;20169;-72
2021/08/21 03:44:42;;;;;;;9.97;9.17;;;17.10;99.90;;;;;;5054414;28;20278;-67
2021/08/21 03:47:08;;;;;;;9.17;8.47;;;17.10;99.90;;;;;;5055374;28;20424;-68
2021/08/21 03:49:34;;;;;;;9.50;8.80;;;17.10;99.90;;;;;;5054401;28;20408;-68
2021/08/21 03:52:00;;;;;;;10.20;9.40;;;17.10;99.90;;;;;;5055181;28;20546;-68
2021/08/21 03:54:25;;;;;;;9.83;9.03;;;17.10;99.90;;;;;;5054022;28;20461;-68
2021/08/21 03:56:51;;;;;;;9.93;8.93;;;17.00;99.90;;;;;;5054944;28;20759;-68
2021/08/21 03:59:17;;;;;;;9.30;8.63;;;17.00;99.90;;;;;;5036375;28;20481;-75
2021/08/21 04:01:43;;;;;;;9.50;8.90;;;17.00;99.90;;;;;;5039795;28;20688;-68
2021/08/21 04:04:08;;;;;;;11.80;10.90;;;17.00;99.90;;;;;;5035332;28;20175;-68
2021/08/21 04:06:40;;;;;;;10.40;9.70;;;17.00;99.90;;;;;;5033883;28;20627;-68
2021/08/21 04:09:05;;;;;;;10.60;9.80;;;16.90;99.90;;;;;;5031181;28;20224;-68
2021/08/21 04:11:31;;;;;;;10.40;9.50;;;16.90;99.90;;;;;;5033891;28;20421;-68
2021/08/21 04:13:57;;;;;;;11.20;10.40;;;16.90;99.90;;;;;;5033996;28;20178;-68
2021/08/21 04:16:23;;;;;;;11.60;10.50;;;16.90;99.90;;;;;;5033652;28;20208;-68
2021/08/21 04:18:48;;;;;;;12.40;11.13;;;16.90;99.90;;;;;;5034825;28;20204;-67
2021/08/21 04:21:14;;;;;;;10.80;10.00;;;16.90;99.90;;;;;;5034538;28;20228;-67
2021/08/21 04:23:40;;;;;;;12.63;10.30;;;16.90;99.90;;;;;;5033550;28;20190;-68
2021/08/21 04:26:06;;;;;;;10.93;10.13;;;16.90;99.90;;;;;;5034559;28;20539;-68
2021/08/21 04:28:32;;;;;;;10.70;10.00;;;16.90;99.90;;;;;;5035687;28;20454;-68
2021/08/21 04:30:58;;;;;;;11.17;10.27;;;16.90;99.90;;;;;;5053926;28;20181;-68
2021/08/21 04:33:24;;;;;;;10.67;9.87;;;16.90;99.90;;;;;;5043410;28;20567;-68
2021/08/21 04:35:50;;;;;;;11.53;10.63;;;16.90;99.90;;;;;;5017934;28;20409;-68
2021/08/21 04:38:17;;;;;;;11.00;10.00;;;16.90;99.90;;;;;;5036377;28;20464;-68
2021/08/21 04:40:44;;;;;;;10.43;9.63;;;16.90;99.90;;;;;;5053739;28;20880;-68
2021/08/21 04:43:11;;;;;;;10.63;9.53;;;17.00;99.90;;;;;;5053205;28;20404;-68
2021/08/21 04:45:37;;;;;;;9.80;9.10;;;16.90;99.90;;;;;;5033704;28;20468;-68
2021/08/21 04:48:03;;;;;;;10.17;9.30;;;16.90;99.90;;;;;;5044239;28;20412;-68
2021/08/21 04:50:29;;;;;;;11.83;10.37;;;16.90;99.90;;;;;;5051831;28;20847;-68
2021/08/21 04:52:55;;;;;;;13.90;10.37;;;16.90;99.90;;;;;;5054061;28;20407;-68
2021/08/21 04:55:21;;;;;;;11.03;10.10;;;16.90;99.90;;;;;;5017362;28;20979;-74
2021/08/21 04:57:46;;;;;;;10.90;10.10;;;17.00;99.90;;;;;;5033493;28;20210;-68
2021/08/21 05:00:13;;;;;;;10.30;9.60;;;17.00;99.90;;;;;;5033886;28;20178;-68
2021/08/21 05:02:38;;;;;;;11.00;10.20;;;17.00;99.90;;;;;;5033208;28;20257;-68
2021/08/21 05:05:04;;;;;;;10.93;10.13;;;17.00;99.90;;;;;;5033821;28;20551;-67
2021/08/21 05:07:30;;;;;;;10.63;9.80;;;17.00;99.90;;;;;;5033597;28;20181;-66
2021/08/21 05:09:56;;;;;;;10.30;9.30;;;17.10;99.90;;;;;;5033854;28;20409;-66
2021/08/21 05:12:22;;;;;;;10.93;9.93;;;17.10;99.90;;;;;;5037266;28;20256;-67
2021/08/21 05:14:47;;;;;;;10.23;9.43;;;17.10;99.90;;;;;;5034315;28;20194;-67
2021/08/21 05:17:13;;;;;;;11.83;10.73;;;17.40;99.90;;;;;;5035869;28;20188;-67
2021/08/21 05:19:42;;;;;;;12.03;11.10;;;17.60;99.90;;;;;;5033073;28;20661;-67
2021/08/21 05:22:23;;;;;;;13.37;12.03;;;17.90;99.90;;;;;;5033391;28;20174;-68
2021/08/21 05:24:51;;;;;;;14.40;13.10;;;18.10;99.90;;;;;;5017041;28;20932;-67
2021/08/21 05:27:18;;;;;;;14.43;12.93;;;18.20;99.90;;;;;;5034006;28;20742;-67
2021/08/21 05:29:44;;;;;;;13.33;12.07;;;18.10;99.90;;;;;;5032977;28;20452;-67
2021/08/21 05:32:10;;;;;;;13.63;12.43;;;18.20;99.90;;;;;;5033500;28;20781;-67
2021/08/21 05:34:35;;;;;;;13.70;12.50;;;18.40;99.90;;;;;;5039587;28;20431;-67
2021/08/21 05:37:01;;;;;;;12.60;11.60;;;18.50;99.90;;;;;;5039349;28;20183;-67
2021/08/21 05:39:27;;;;;;;14.60;13.23;;;18.70;99.90;;;;;;5045955;28;20265;-68
2021/08/21 05:41:53;;;;;;;13.40;12.27;;;18.80;99.90;;;;;;5037816;28;20198;-67
2021/08/21 05:44:19;;;;;;;13.10;12.10;;;19.00;99.90;;;;;;5035330;28;20227;-67
2021/08/21 05:46:44;;;;;;;14.33;13.07;;;19.00;99.90;;;;;;5072738;28;20400;-67
2021/08/21 05:49:10;;;;;;;14.80;13.27;;;19.10;99.90;;;;;;5064296;28;20182;-67
2021/08/21 05:51:36;;;;;;;14.50;13.30;;;19.20;99.90;;;;;;5063991;28;20188;-67
2021/08/21 05:54:01;;;;;;;14.20;12.83;;;19.30;99.90;;;;;;5073314;28;20180;-67
2021/08/21 05:56:27;;;;;;;13.60;12.40;;;19.40;99.90;;;;;;5053397;28;20185;-67
2021/08/21 05:58:53;;;;;;;15.70;14.00;;;19.50;99.90;;;;;;5056396;28;20178;-67
2021/08/21 06:01:18;;;;;;;15.43;14.03;;;19.50;99.90;;;;;;5056260;28;20199;-67
2021/08/21 06:03:44;;;;;;;14.90;13.67;;;19.60;99.90;;;;;;5070654;28;20199;-67
2021/08/21 06:06:11;;;;;;;15.03;13.50;;;19.50;99.90;;;;;;5052616;28;20202;-67
2021/08/21 06:08:38;;;;;;;14.60;13.23;;;19.50;99.90;;;;;;5051934;28;20208;-67
2021/08/21 06:11:03;;;;;;;13.90;12.67;;;19.50;99.90;;;;;;5066411;28;20472;-67
2021/08/21 06:13:29;;;;;;;14.47;13.27;;;19.50;99.90;;;;;;5071223;28;20431;-67
2021/08/21 06:15:55;;;;;;;12.80;11.63;;;19.50;99.90;;;;;;5054655;28;20633;-67
2021/08/21 06:18:20;;;;;;;13.53;12.33;;;19.60;99.90;;;;;;5057023;28;20173;-67
2021/08/21 06:20:46;;;;;;;13.97;12.77;;;19.70;99.90;;;;;;5069948;28;20518;-67
2021/08/21 06:23:12;;;;;;;13.77;12.57;;;19.70;99.90;;;;;;5054823;28;20184;-67
2021/08/21 06:25:38;;;;;;;13.80;12.70;;;19.70;99.90;;;;;;5055263;28;20201;-67
2021/08/21 06:28:04;;;;;;;13.80;12.50;;;19.70;99.90;;;;;;5072354;28;20185;-67
2021/08/21 06:30:29;;;;;;;12.87;11.87;;;19.80;99.90;;;;;;5061217;28;20276;-68
2021/08/21 06:32:55;;;;;;;14.63;13.43;;;19.80;99.90;;;;;;5059063;28;20522;-68
2021/08/21 06:35:21;;;;;;;15.00;13.67;;;19.80;99.90;;;;;;5059368;28;20182;-67
2021/08/21 06:37:47;;;;;;;14.63;13.47;;;19.80;99.90;;;;;;5066821;28;20184;-67
2021/08/21 06:40:13;;;;;;;15.37;14.17;;;19.80;99.90;;;;;;5051110;28;20174;-67
2021/08/21 06:42:38;;;;;;;15.67;14.47;;;19.80;99.90;;;;;;5057993;28;20177;-67
2021/08/21 06:45:05;;;;;;;11.63;10.70;;;19.80;99.90;;;;;;5052981;28;20525;-66
2021/08/21 06:47:33;;;;;;;13.97;12.77;;;20.00;99.90;;;;;;5036998;28;20205;-67
2021/08/21 06:49:59;;;;;;;11.27;10.57;;;20.10;99.90;;;;;;5033331;28;20511;-67
2021/08/21 06:52:25;;;;;;;11.43;10.63;;;20.30;99.90;;;;;;5034456;28;20504;-67
2021/08/21 06:54:51;;;;;;;14.87;13.77;;;20.40;99.90;;;;;;5041585;28;20197;-67
2021/08/21 06:57:16;;;;;;;15.67;14.40;;;20.60;99.90;;;;;;5035622;28;20492;-67
2021/08/21 06:59:42;;;;;;;15.37;14.23;;;20.60;99.90;;;;;;5050081;28;20239;-67
2021/08/21 07:02:08;;;;;;;15.57;14.27;;;20.50;99.90;;;;;;5043695;28;20166;-67
2021/08/21 07:04:33;;;;;;;14.60;13.50;;;20.30;99.90;;;;;;5034717;28;20169;-67
2021/08/21 07:06:59;;;;;;;14.43;13.30;;;20.20;99.90;;;;;;5052344;28;20170;-69
2021/08/21 07:09:25;;;;;;;14.13;12.93;;;20.20;99.90;;;;;;5045523;28;20235;-69
2021/08/21 07:11:50;;;;;;;14.60;13.50;;;20.10;99.90;;;;;;5039795;28;20572;-69
2021/08/21 07:14:16;;;;;;;16.27;14.90;;;20.20;99.90;;;;;;5037977;28;20209;-69
2021/08/21 07:16:42;;;;;;;13.87;12.83;;;20.20;99.90;;;;;;5041555;28;20193;-69
2021/08/21 07:19:08;;;;;;;14.80;13.67;;;20.30;99.90;;;;;;5034259;28;20652;-69
2021/08/21 07:21:34;;;;;;;14.77;13.50;;;20.30;99.90;;;;;;5033363;28;20185;-69
2021/08/21 07:24:00;;;;;;;13.73;12.73;;;20.30;99.90;;;;;;5037965;28;20178;-68
2021/08/21 07:26:25;;;;;;;13.93;12.73;;;20.30;99.90;;;;;;5036283;28;20457;-69
2021/08/21 07:28:51;;;;;;;13.30;12.30;;;20.50;99.90;;;;;;5030805;28;20413;-69
2021/08/21 07:31:17;;;;;;;14.07;12.87;;;20.50;99.90;;;;;;5044406;28;20633;-69
2021/08/21 07:33:43;;;;;;;14.70;13.33;;;20.70;99.90;;;;;;5050984;28;20217;-69
2021/08/21 07:36:09;;;;;;;13.77;12.57;;;20.80;99.90;;;;;;5051726;28;20810;-69
2021/08/21 07:38:35;;;;;;;13.70;12.50;;;20.80;99.90;;;;;;5033036;28;20443;-69
2021/08/21 07:41:01;;;;;;;14.30;12.97;;;20.80;99.90;;;;;;5033238;28;20174;-69
2021/08/21 07:43:27;;;;;;;15.53;14.23;;;20.70;99.90;;;;;;5031823;28;20417;-69
2021/08/21 07:45:52;;;;;;;13.60;12.40;;;20.40;99.90;;;;;;5013047;28;20816;-69
2021/08/21 07:48:18;;;;;;;13.53;12.27;;;20.40;99.90;;;;;;5043001;28;20556;-69
2021/08/21 07:50:45;;;;;;;12.43;10.80;;;20.50;99.90;;;;;;5046610;28;20185;-69
2021/08/21 07:53:11;;;;;;;12.63;11.63;;;20.60;99.90;;;;;;5037775;28;20586;-69
2021/08/21 07:55:37;;;;;;;13.40;12.20;;;20.80;99.90;;;;;;5036138;28;20425;-69
2021/08/21 07:58:04;;;;;;;10.80;9.83;;;20.90;99.90;;;;;;5035410;28;20409;-69
2021/08/21 08:00:32;;;;;;;12.80;11.80;;;21.00;99.90;;;;;;5035532;28;20185;-74
2021/08/21 08:02:58;;;;;;;12.50;11.33;;;21.10;99.90;;;;;;5048202;28;20426;-69
2021/08/21 08:05:24;;;;;;;12.73;11.73;;;21.10;99.90;;;;;;5035380;28;20535;-72
2021/08/21 08:07:50;;;;;;;12.50;11.40;;;21.20;99.90;;;;;;5043855;28;20428;-69
2021/08/21 08:10:17;;;;;;;13.70;12.20;;;21.30;99.90;;;;;;5052782;28;20432;-69
2021/08/21 08:12:43;;;;;;;13.13;12.00;;;21.30;99.90;;;;;;5045973;28;20435;-70
2021/08/21 08:15:09;;;;;;;12.23;11.27;;;21.40;99.90;;;;;;5041377;28;20416;-69
2021/08/21 08:17:35;;;;;;;12.93;11.73;;;21.40;99.90;;;;;;5036276;28;20819;-69
2021/08/21 08:20:02;;;;;;;11.70;10.70;;;21.50;99.90;;;;;;5041419;28;20416;-69
2021/08/21 08:22:27;;;;;;;11.93;10.90;;;21.50;99.90;;;;;;5041709;28;20464;-69
2021/08/21 08:24:53;;;;;;;12.47;11.43;;;21.60;99.90;;;;;;5034133;28;20449;-69
2021/08/21 08:27:19;;;;;;;11.63;10.60;;;21.70;99.90;;;;;;5035032;28;20619;-69
2021/08/21 08:29:45;;;;;;;10.40;9.60;;;21.70;99.90;;;;;;5034375;28;20178;-69
2021/08/21 08:32:11;;;;;;;11.03;10.03;;;21.80;99.90;;;;;;5038770;28;20182;-69
2021/08/21 08:34:37;;;;;;;10.67;9.87;;;21.90;99.90;;;;;;5036931;28;20423;-69
2021/08/21 08:37:06;;;;;;;11.30;10.20;;;22.00;99.90;;;;;;5037962;28;20173;-69
2021/08/21 08:39:32;;;;;;;10.97;10.07;;;22.00;99.90;;;;;;5034326;28;20444;-74
2021/08/21 08:41:59;;;;;;;11.20;10.30;;;22.10;99.90;;;;;;5034137;28;20437;-69
2021/08/21 08:44:26;;;;;;;12.10;10.90;;;22.10;99.90;;;;;;5049632;28;20225;-69
2021/08/21 08:46:53;;;;;;;10.90;9.90;;;22.20;99.90;;;;;;5053083;28;21074;-69
2021/08/21 08:49:19;;;;;;;10.57;9.73;;;22.30;99.90;;;;;;5054226;28;20416;-69
2021/08/21 08:51:45;;;;;;;11.20;10.30;;;22.40;99.90;;;;;;5053314;28;20401;-69
2021/08/21 08:54:11;;;;;;;11.70;10.70;;;22.60;99.90;;;;;;5054004;28;20777;-68
2021/08/21 08:56:36;;;;;;;10.80;10.00;;;22.70;99.90;;;;;;5052974;28;20427;-73
2021/08/21 08:59:02;;;;;;;10.57;9.70;;;22.80;99.90;;;;;;5053790;28;20178;-69
2021/08/21 09:01:28;;;;;;;10.60;9.80;;;22.90;99.90;;;;;;5053734;28;20675;-70
2021/08/21 09:04:17;;;;;;;10.90;9.90;;;22.90;99.90;;;;;;5018834;28;20260;-68
2021/08/21 09:06:43;;;;;;;11.60;10.70;;;23.00;99.90;;;;;;5038163;28;20205;-70
2021/08/21 09:09:11;;;;;;;13.83;12.57;;;23.10;99.90;;;;;;5052748;28;20785;-68
2021/08/21 09:11:44;;;;;;;13.77;12.50;;;23.10;99.90;;;;;;5047804;28;20424;-68
2021/08/21 09:14:21;;;;;;;13.37;12.07;;;23.20;99.90;;;;;;5034045;28;20425;-68
2021/08/21 09:16:48;;;;;;;10.30;9.53;;;23.30;99.90;;;;;;5033159;28;20916;-68
2021/08/21 09:19:22;;;;;;;12.07;11.07;;;23.40;99.90;;;;;;5016928;28;20413;-69
2021/08/21 09:21:59;;;;;;;10.73;9.83;;;23.50;99.90;;;;;;5043293;28;20774;-68
2021/08/21 09:24:25;;;;;;;10.20;9.40;;;23.80;99.90;;;;;;5033990;28;20885;-68
2021/08/21 09:26:52;;;;;;;11.53;10.57;;;23.90;99.90;;;;;;5047817;28;20424;-68
2021/08/21 09:29:26;;;;;;;11.47;10.43;;;23.80;98.50;;;;;;5034177;28;20417;-67
2021/08/21 09:32:04;;;;;;;10.07;9.30;;;23.80;98.00;;;;;;5039604;28;20411;-67
2021/08/21 09:34:30;;;;;;;10.67;9.57;;;23.90;98.40;;;;;;5053441;28;20389;-68
2021/08/21 09:36:56;;;;;;;9.93;9.03;;;24.00;98.10;;;;;;5041305;28;20432;-70
2021/08/21 09:39:41;;;;;;;9.67;8.40;;;24.10;97.60;;;;;;5033400;28;20178;-71
2021/08/21 09:42:09;;;;;;;10.10;9.33;;;24.20;98.70;;;;;;5033747;28;20186;-68
2021/08/21 09:44:42;;;;;;;9.73;8.80;;;24.40;98.50;;;;;;5039408;28;20465;-68
2021/08/21 09:47:26;;;;;;;9.90;9.10;;;24.50;98.90;;;;;;5053502;28;20420;-69
2021/08/21 09:50:10;;;;;;;9.13;8.37;;;24.60;97.30;;;;;;5047752;28;20755;-68
2021/08/21 09:52:36;;;;;;;8.07;7.47;;;24.60;96.50;;;;;;5037866;28;20499;-68
2021/08/21 09:55:06;;;;;;;8.90;8.20;;;24.50;96.40;;;;;;5042413;28;20762;-68
2021/08/21 09:57:32;;;;;;;8.10;7.40;;;24.40;96.30;;;;;;5046786;28;20916;-68
2021/08/21 10:00:02;;;;;;;7.70;6.90;;;24.30;96.40;;;;;;5045693;28;20416;-67
2021/08/21 10:02:33;;;;;;;7.70;7.00;;;24.10;97.00;;;;;;5034656;28;20404;-66
2021/08/21 10:04:59;;;;;;;7.50;7.00;;;24.00;98.00;;;;;;5042114;28;20547;-66
2021/08/21 10:07:35;;;;;;;7.80;7.20;;;23.90;98.20;;;;;;5039005;28;20823;-68
2021/08/21 10:10:03;;;;;;;8.20;7.60;;;23.90;99.00;;;;;;5031328;28;20404;-66
2021/08/21 10:12:28;;;;;;;7.43;6.93;;;23.80;99.40;;;;;;5032498;28;20458;-67
2021/08/21 10:14:55;;;;;;;8.13;7.50;;;23.60;99.30;;;;;;5036545;28;20523;-67
2021/08/21 10:17:21;;;;;;;7.60;7.00;;;23.60;99.90;;;;;;5038811;28;20194;-67
2021/08/21 10:19:48;;;;;;;8.20;7.50;;;23.50;99.90;;;;;;5049955;28;20497;-67
2021/08/21 10:22:15;;;;;;;8.60;7.70;;;23.40;99.90;;;;;;5048241;28;20425;-67
2021/08/21 10:24:43;;;;;;;8.77;8.10;;;23.40;99.90;;;;;;5031939;28;20417;-67
2021/08/21 10:27:28;;;;;;;9.33;8.63;;;23.30;99.80;;;;;;5032909;28;20813;-67
2021/08/21 10:30:00;;;;;;;7.77;7.10;;;23.20;99.00;;;;;;5041172;28;20405;-67
2021/08/21 10:33:03;;;;;;;9.20;8.47;;;23.10;99.40;;;;;;5052480;28;20490;-65
2021/08/21 10:35:48;;;;;;;8.43;7.73;;;23.10;99.20;;;;;;5036115;28;20427;-65
2021/08/21 10:38:30;;;;;;;8.10;7.50;;;23.10;99.20;;;;;;5032381;28;20425;-65
2021/08/21 10:41:08;;;;;;;8.03;7.43;;;23.10;99.10;;;;;;5032090;28;20462;-65
2021/08/21 10:43:46;;;;;;;8.13;7.53;;;23.20;99.90;;;;;;5032451;28;20402;-66
2021/08/21 10:46:12;;;;;;;7.30;6.60;;;23.40;98.10;;;;;;5032088;28;20453;-66
2021/08/21 10:48:38;;;;;;;6.73;6.23;;;23.60;98.30;;;;;;5032606;28;20428;-65
2021/08/21 10:51:25;;;;;;;6.63;6.20;;;23.70;98.60;;;;;;5032897;28;20486;-65
2021/08/21 10:53:51;;;;;;;5.73;5.33;;;23.80;98.30;;;;;;5031824;28;20424;-66
2021/08/21 10:56:33;;;;;;;6.30;5.90;;;23.80;97.80;;;;;;5032701;28;20435;-65
2021/08/21 10:58:59;;;;;;;6.03;5.50;;;23.80;97.40;;;;;;5032046;28;20511;-66
2021/08/21 11:01:25;;;;;;;5.70;5.30;;;23.80;97.60;;;;;;5031868;28;20413;-66
2021/08/21 11:03:52;;;;;;;6.70;5.37;;;23.90;97.30;;;;;;5017734;28;20570;-66
2021/08/21 11:06:33;;;;;;;6.00;5.50;;;23.80;96.70;;;;;;5039004;28;20246;-66
2021/08/21 11:09:01;;;;;;;4.80;4.40;;;23.80;96.70;;;;;;5050014;28;20412;-66
2021/08/21 11:11:43;;;;;;;4.57;4.27;;;23.80;96.70;;;;;;5051402;28;20511;-66
2021/08/21 11:14:21;;;;;;;5.57;5.17;;;23.90;97.80;;;;;;5051779;28;20412;-65
2021/08/21 11:16:54;;;;;;;5.33;5.00;;;23.90;98.40;;;;;;5022645;28;20515;-66
2021/08/21 11:19:28;;;;;;;5.20;4.80;;;24.10;99.80;;;;;;5045717;28;20448;-66
2021/08/21 11:22:14;;;;;;;5.83;5.43;;;24.30;98.70;;;;;;5027006;28;20424;-69
2021/08/21 11:25:01;;;;;;;5.90;5.50;;;24.30;94.40;;;;;;5042797;28;20507;-68
2021/08/21 11:27:28;;;;;;;5.63;5.23;;;24.30;95.00;;;;;;5037010;28;20464;-66
2021/08/21 11:30:21;;;;;;;5.63;5.23;;;24.30;95.30;;;;;;5041589;28;20427;-65
2021/08/21 11:33:00;;;;;;;5.40;5.10;;;24.50;97.10;;;;;;5037941;28;20388;-66
2021/08/21 11:35:30;;;;;;;5.20;4.80;;;24.50;96.60;;;;;;5041192;28;20424;-66
2021/08/21 11:37:58;;;;;;;5.67;5.27;;;24.60;96.80;;;;;;5029809;28;20421;-65
2021/08/21 11:40:48;;;;;;;5.07;4.67;;;24.60;95.70;;;;;;5047371;28;20503;-65
2021/08/21 11:43:28;;;;;;;5.37;4.97;;;24.60;94.40;;;;;;5023030;28;20503;-64
2021/08/21 11:45:55;;;;;;;5.20;4.90;;;24.60;94.70;;;;;;5045283;28;20453;-64
2021/08/21 11:48:28;;;;;;;5.63;5.13;;;24.70;95.50;;;;;;5030588;28;20991;-65
2021/08/21 11:50:54;;;;;;;6.20;5.70;;;24.90;95.60;;;;;;5049391;28;20517;-66
2021/08/21 11:53:21;;;;;;;4.80;4.50;;;24.90;95.80;;;;;;5043216;28;20482;-67
2021/08/21 11:55:48;;;;;;;5.53;5.13;;;25.00;94.90;;;;;;5045755;28;20444;-71
2021/08/21 11:58:14;;;;;;;5.00;4.70;;;25.00;95.30;;;;;;5035151;28;20890;-66
2021/08/21 12:00:44;;;;;;;5.57;4.50;;;25.00;95.20;;;;;;5040339;28;20460;-66
2021/08/21 12:03:12;;;;;;;7.93;7.23;;;25.00;95.10;;;;;;5041711;28;20253;-69
2021/08/21 12:05:45;;;;;;;6.00;5.50;;;25.00;96.00;;;;;;5035957;28;20818;-66
2021/08/21 12:08:16;;;;;;;5.90;5.50;;;25.10;97.90;;;;;;5035725;28;20417;-66
2021/08/21 12:10:54;;;;;;;6.10;5.60;;;25.30;97.30;;;;;;5035170;28;20447;-66
2021/08/21 12:13:34;;;;;;;6.40;5.40;;;25.30;95.40;;;;;;5034594;28;20405;-66
2021/08/21 12:16:07;;;;;;;5.43;4.93;;;25.30;94.70;;;;;;5035156;28;20755;-66
2021/08/21 12:18:35;;;;;;;5.40;5.10;;;25.20;94.30;;;;;;5034981;28;20781;-66
2021/08/21 12:21:01;;;;;;;5.30;4.90;;;25.30;95.00;;;;;;5034119;28;20406;-66
2021/08/21 12:23:27;;;;;;;5.87;5.47;;;25.40;95.00;;;;;;5046892;28;20416;-66
2021/08/21 12:25:59;;;;;;;5.57;5.17;;;25.50;95.40;;;;;;5033890;28;20462;-66
2021/08/21 12:28:41;;;;;;;5.63;5.33;;;25.60;94.20;;;;;;5016801;28;20162;-66
2021/08/21 12:31:18;;;;;;;5.03;4.73;;;25.60;94.00;;;;;;5036967;28;20431;-66
2021/08/21 12:33:54;;;;;;;5.70;5.40;;;25.70;94.60;;;;;;5034117;28;20480;-66
2021/08/21 12:36:22;;;;;;;5.50;5.10;;;25.90;94.70;;;;;;5037337;28;20842;-66
2021/08/21 12:39:14;;;;;;;4.70;4.40;;;25.80;92.70;;;;;;5053437;28;20497;-69
2021/08/21 12:41:50;;;;;;;4.70;4.40;;;25.70;91.80;;;;;;5053150;28;20461;-66
2021/08/21 12:44:17;;;;;;;5.17;4.70;;;25.60;92.10;;;;;;5046032;28;20852;-66